createdAt,value
2022-11-05T00:02:02.854Z,8.30
2022-11-05T00:04:48.853Z,8.30
2022-11-05T00:07:43.394Z,9.00
2022-11-05T00:10:23.836Z,8.10
2022-11-05T00:13:12.764Z,8.60
2022-11-05T00:15:59.173Z,10.30
2022-11-05T00:18:26.860Z,8.10
2022-11-05T00:20:54.469Z,7.90
2022-11-05T00:23:41.190Z,8.50
2022-11-05T00:26:11.569Z,8.20
2022-11-05T00:28:44.091Z,10.20
2022-11-05T00:31:14.182Z,8.90
2022-11-05T00:33:49.791Z,9.60
2022-11-05T00:36:17.338Z,7.90
2022-11-05T00:38:44.890Z,10.20
2022-11-05T00:41:12.486Z,8.10
2022-11-05T00:43:59.533Z,7.80
2022-11-05T00:46:26.932Z,7.40
2022-11-05T00:49:13.433Z,6.90
2022-11-05T00:51:43.221Z,9.20
2022-11-05T00:54:10.829Z,7.80
2022-11-05T00:56:38.435Z,7.70
2022-11-05T00:59:06.120Z,8.20
2022-11-05T01:01:33.779Z,7.70
2022-11-05T01:04:01.420Z,7.90
2022-11-05T01:06:32.270Z,7.90
2022-11-05T01:08:59.844Z,8.20
2022-11-05T01:11:33.587Z,7.60
2022-11-05T01:14:13.789Z,8.10
2022-11-05T01:16:41.490Z,7.50
2022-11-05T01:19:15.063Z,9.60
2022-11-05T01:21:42.614Z,8.30
2022-11-05T01:24:11.081Z,8.70
2022-11-05T01:26:38.591Z,7.70
2022-11-05T01:29:06.444Z,7.60
2022-11-05T01:31:34.034Z,7.00
2022-11-05T01:34:01.786Z,7.40
2022-11-05T01:36:29.716Z,7.00
2022-11-05T01:38:57.140Z,7.80
2022-11-05T01:41:31.480Z,8.80
2022-11-05T01:44:00.121Z,6.70
2022-11-05T01:46:32.816Z,7.40
2022-11-05T01:49:32.892Z,7.40
2022-11-05T01:52:04.411Z,7.50
2022-11-05T01:54:33.129Z,9.00
2022-11-05T01:57:04.281Z,8.90
2022-11-05T01:59:45.262Z,10.00
2022-11-05T02:02:13.099Z,7.40
2022-11-05T02:04:54.195Z,7.60
2022-11-05T02:07:24.696Z,7.30
2022-11-05T02:09:58.824Z,6.90
2022-11-05T02:12:29.028Z,8.30
2022-11-05T02:14:57.687Z,6.30
2022-11-05T02:17:42.402Z,7.50
2022-11-05T02:20:24.076Z,9.40
2022-11-05T02:23:10.095Z,7.50
2022-11-05T02:25:49.857Z,7.60
2022-11-05T02:28:42.040Z,7.60
2022-11-05T02:31:18.808Z,7.60
2022-11-05T02:34:10.915Z,7.60
2022-11-05T02:37:07.202Z,8.10
2022-11-05T02:39:56.732Z,7.60
2022-11-05T02:42:45.431Z,7.50
2022-11-05T02:45:18.979Z,7.40
2022-11-05T02:48:19.078Z,7.40
2022-11-05T02:51:05.354Z,7.40
2022-11-05T02:54:06.833Z,7.40
2022-11-05T02:56:38.346Z,7.80
2022-11-05T02:59:05.835Z,9.30
2022-11-05T03:01:35.981Z,9.50
2022-11-05T03:04:06.952Z,8.90
2022-11-05T03:07:04.405Z,7.50
2022-11-05T03:09:57.769Z,7.30
2022-11-05T03:12:39.026Z,5.30
2022-11-05T03:15:28.522Z,8.30
2022-11-05T03:18:16.074Z,7.30
2022-11-05T03:20:49.722Z,8.10
2022-11-05T03:23:39.034Z,7.60
2022-11-05T03:26:26.488Z,7.50
2022-11-05T03:29:10.786Z,7.50
2022-11-05T03:31:41.217Z,7.40
2022-11-05T03:34:12.937Z,9.50
2022-11-05T03:36:51.522Z,7.60
2022-11-05T03:39:31.127Z,8.40
2022-11-05T03:42:15.674Z,7.40
2022-11-05T03:45:10.622Z,7.50
2022-11-05T03:47:42.613Z,7.50
2022-11-05T03:50:41.220Z,9.00
2022-11-05T03:53:26.169Z,7.60
2022-11-05T03:56:08.647Z,8.00
2022-11-05T03:58:37.699Z,7.80
2022-11-05T04:01:05.782Z,9.70
2022-11-05T04:03:36.543Z,8.60
2022-11-05T04:06:27.048Z,9.10
2022-11-05T04:09:13.711Z,7.60
2022-11-05T04:12:00.373Z,7.70
2022-11-05T04:14:28.011Z,9.30
2022-11-05T04:17:07.512Z,7.70
2022-11-05T04:19:58.435Z,9.20
2022-11-05T04:22:49.172Z,8.40
2022-11-05T04:25:18.682Z,9.20
2022-11-05T04:27:49.040Z,9.90
2022-11-05T04:30:19.216Z,10.00
2022-11-05T04:33:13.225Z,9.60
2022-11-05T04:35:46.414Z,8.90
2022-11-05T04:38:25.386Z,8.30
2022-11-05T04:40:53.006Z,8.20
2022-11-05T04:43:20.990Z,8.00
2022-11-05T04:45:48.818Z,8.10
2022-11-05T04:48:16.382Z,10.60
2022-11-05T04:50:47.337Z,8.10
2022-11-05T04:53:17.549Z,10.90
2022-11-05T04:55:45.310Z,9.20
2022-11-05T04:58:13.041Z,11.00
2022-11-05T05:00:41.047Z,10.70
2022-11-05T05:03:09.378Z,10.80
2022-11-05T05:05:37.304Z,10.30
2022-11-05T05:08:11.106Z,8.20
2022-11-05T05:10:41.549Z,8.90
2022-11-05T05:13:12.009Z,11.00
2022-11-05T05:15:39.686Z,9.40
2022-11-05T05:18:08.678Z,9.60
2022-11-05T05:20:54.388Z,8.00
2022-11-05T05:23:21.769Z,8.50
2022-11-05T05:25:49.128Z,9.10
2022-11-05T05:28:16.599Z,7.60
2022-11-05T05:30:44.157Z,7.80
2022-11-05T05:33:11.739Z,9.70
2022-11-05T05:35:39.201Z,9.10
2022-11-05T05:38:06.484Z,8.80
2022-11-05T05:40:33.849Z,7.80
2022-11-05T05:43:01.196Z,8.00
2022-11-05T05:45:28.513Z,9.10
2022-11-05T05:47:56.726Z,9.80
2022-11-05T05:50:24.282Z,9.30
2022-11-05T05:52:53.252Z,7.10
2022-11-05T05:55:20.854Z,9.70
2022-11-05T05:57:48.282Z,10.50
2022-11-05T06:00:15.854Z,8.20
2022-11-05T06:02:43.496Z,7.40
2022-11-05T06:05:11.170Z,8.70
2022-11-05T06:07:38.511Z,8.30
2022-11-05T06:10:06.376Z,8.30
2022-11-05T06:12:33.952Z,7.40
2022-11-05T06:15:01.395Z,8.20
2022-11-05T06:17:28.768Z,9.20
2022-11-05T06:19:56.115Z,9.00
2022-11-05T06:22:24.911Z,6.50
2022-11-05T06:24:52.289Z,9.00
2022-11-05T06:27:19.792Z,9.30
2022-11-05T06:29:47.201Z,9.40
2022-11-05T06:32:14.698Z,9.40
2022-11-05T06:34:42.042Z,7.40
2022-11-05T06:37:09.511Z,8.80
2022-11-05T06:39:36.944Z,7.20
2022-11-05T06:42:18.069Z,9.40
2022-11-05T06:44:46.253Z,7.20
2022-11-05T06:47:13.603Z,8.50
2022-11-05T06:49:40.971Z,6.90
2022-11-05T06:52:08.522Z,7.50
2022-11-05T06:54:35.875Z,8.20
2022-11-05T06:57:04.438Z,8.90
2022-11-05T06:59:31.961Z,7.40
2022-11-05T07:01:59.433Z,8.60
2022-11-05T07:04:26.812Z,7.20
2022-11-05T07:06:54.253Z,6.90
2022-11-05T07:09:21.667Z,8.40
2022-11-05T07:11:49.056Z,7.40
2022-11-05T07:14:16.489Z,9.60
2022-11-05T07:16:44.024Z,8.00
2022-11-05T07:19:11.469Z,7.20
2022-11-05T07:21:40.161Z,7.40
2022-11-05T07:24:08.039Z,7.40
2022-11-05T07:26:35.433Z,7.40
2022-11-05T07:29:02.838Z,7.40
2022-11-05T07:31:30.199Z,9.00
2022-11-05T07:33:59.121Z,7.40
2022-11-05T07:36:26.465Z,7.50
2022-11-05T07:38:58.916Z,7.30
2022-11-05T07:41:29.326Z,7.90
2022-11-05T07:43:56.875Z,7.70
2022-11-05T07:46:24.357Z,9.50
2022-11-05T07:48:51.728Z,7.90
2022-11-05T07:51:19.167Z,10.40
2022-11-05T07:53:48.231Z,7.70
2022-11-05T07:56:16.351Z,7.80
2022-11-05T07:58:43.822Z,10.00
2022-11-05T08:01:11.335Z,8.40
2022-11-05T08:03:38.973Z,8.20
2022-11-05T08:06:06.543Z,8.30
2022-11-05T08:08:34.043Z,8.30
2022-11-05T08:11:06.703Z,8.40
2022-11-05T08:13:34.727Z,9.30
2022-11-05T08:16:08.066Z,8.60
2022-11-05T08:18:35.936Z,8.50
2022-11-05T08:21:05.329Z,9.80
2022-11-05T08:23:33.116Z,8.80
2022-11-05T08:26:03.641Z,10.30
2022-11-05T08:28:31.111Z,9.20
2022-11-05T08:30:58.675Z,9.90
2022-11-05T08:33:28.032Z,9.00
2022-11-05T08:35:55.397Z,11.10
2022-11-05T08:38:22.939Z,9.00
2022-11-05T08:40:55.999Z,10.50
2022-11-05T08:43:23.749Z,9.20
2022-11-05T08:45:51.087Z,11.60
2022-11-05T08:48:19.506Z,9.20
2022-11-05T08:50:48.780Z,11.80
2022-11-05T08:53:16.693Z,9.40
2022-11-05T08:55:44.737Z,10.30
2022-11-05T08:58:17.025Z,11.20
2022-11-05T09:00:46.723Z,11.20
2022-11-05T09:03:15.090Z,11.80
2022-11-05T09:05:43.169Z,10.70
2022-11-05T09:08:16.818Z,9.70
2022-11-05T09:10:47.173Z,9.50
2022-11-05T09:13:18.956Z,11.80
2022-11-05T09:15:48.370Z,9.90
2022-11-05T09:18:17.288Z,10.40
2022-11-05T09:20:45.122Z,10.80
2022-11-05T09:23:14.977Z,10.00
2022-11-05T09:25:43.378Z,10.00
2022-11-05T09:28:16.807Z,10.10
2022-11-05T09:30:47.247Z,10.50
2022-11-05T09:33:15.793Z,11.60
2022-11-05T09:35:43.250Z,10.00
2022-11-05T09:38:10.710Z,10.10
2022-11-05T09:41:00.707Z,10.20
2022-11-05T09:43:32.140Z,10.10
2022-11-05T09:46:04.602Z,12.10
2022-11-05T09:48:34.071Z,12.30
2022-11-05T09:51:01.799Z,12.30
2022-11-05T09:53:29.270Z,10.30
2022-11-05T09:55:59.046Z,10.90
2022-11-05T09:59:06.565Z,12.80
2022-11-05T10:01:37.751Z,10.60
2022-11-05T10:04:14.804Z,10.60
2022-11-05T10:06:59.850Z,11.30
2022-11-05T10:09:33.021Z,10.80
2022-11-05T10:12:12.942Z,10.80
2022-11-05T10:14:46.806Z,11.00
2022-11-05T10:17:25.272Z,10.90
2022-11-05T10:20:18.956Z,12.50
2022-11-05T10:22:49.787Z,11.00
2022-11-05T10:25:22.002Z,11.10
2022-11-05T10:27:54.631Z,13.00
2022-11-05T10:30:23.265Z,11.20
2022-11-05T10:32:56.194Z,11.20
2022-11-05T10:35:26.874Z,11.40
2022-11-05T10:37:56.566Z,11.70
2022-11-05T10:40:57.835Z,11.60
2022-11-05T10:43:31.022Z,11.40
2022-11-05T10:46:13.783Z,11.40
2022-11-05T10:48:56.821Z,11.40
2022-11-05T10:51:24.464Z,11.70
2022-11-05T10:54:01.543Z,12.20
2022-11-05T10:56:36.240Z,11.70
2022-11-05T10:59:11.871Z,12.20
2022-11-05T11:01:39.974Z,13.40
2022-11-05T11:04:15.813Z,11.90
2022-11-05T11:06:52.820Z,11.80
2022-11-05T11:09:22.105Z,11.80
2022-11-05T11:12:14.694Z,13.80
2022-11-05T11:14:42.037Z,11.80
2022-11-05T11:17:24.570Z,13.10
2022-11-05T11:19:53.533Z,11.80
2022-11-05T11:22:21.845Z,13.70
2022-11-05T11:24:54.010Z,12.10
2022-11-05T11:27:27.969Z,11.90
2022-11-05T11:29:57.417Z,12.00
2022-11-05T11:32:31.981Z,13.40
2022-11-05T11:35:01.091Z,12.60
2022-11-05T11:37:37.330Z,12.10
2022-11-05T11:40:23.385Z,12.20
2022-11-05T11:42:54.826Z,12.20
2022-11-05T11:45:33.692Z,14.10
2022-11-05T11:48:05.115Z,12.30
2022-11-05T11:50:42.397Z,14.10
2022-11-05T11:53:17.090Z,12.50
2022-11-05T11:56:01.273Z,12.90
2022-11-05T11:58:42.847Z,12.60
2022-11-05T12:01:19.473Z,12.70
2022-11-05T12:03:49.802Z,12.70
2022-11-05T12:06:29.391Z,11.40
2022-11-05T12:09:27.566Z,14.20
2022-11-05T12:11:59.027Z,12.80
2022-11-05T12:14:46.471Z,13.60
2022-11-05T12:17:34.648Z,12.80
2022-11-05T12:20:20.669Z,12.90
2022-11-05T12:22:53.770Z,12.90
2022-11-05T12:25:37.446Z,13.80
2022-11-05T12:28:22.967Z,13.00
2022-11-05T12:31:16.851Z,12.80
2022-11-05T12:33:59.237Z,13.60
2022-11-05T12:37:04.838Z,12.80
2022-11-05T12:39:52.500Z,12.90
2022-11-05T12:42:26.869Z,12.80
2022-11-05T12:45:12.589Z,12.90
2022-11-05T12:48:11.871Z,12.80
2022-11-05T12:50:52.356Z,12.80
2022-11-05T12:53:38.841Z,12.90
2022-11-05T12:56:31.006Z,12.90
2022-11-05T12:59:16.382Z,13.90
2022-11-05T13:01:48.359Z,12.80
2022-11-05T13:04:33.860Z,14.50
2022-11-05T13:07:06.531Z,12.80
2022-11-05T13:09:46.377Z,12.80
2022-11-05T13:12:17.011Z,12.30
2022-11-05T13:14:56.436Z,13.80
2022-11-05T13:17:45.909Z,12.80
2022-11-05T13:20:19.138Z,12.80
2022-11-05T13:22:50.844Z,12.80
2022-11-05T13:25:29.470Z,12.80
2022-11-05T13:28:07.226Z,12.80
2022-11-05T13:30:43.624Z,12.90
2022-11-05T13:33:17.918Z,14.20
2022-11-05T13:36:11.388Z,12.60
2022-11-05T13:39:00.538Z,13.10
2022-11-05T13:41:46.906Z,14.70
2022-11-05T13:44:35.429Z,12.90
2022-11-05T13:47:05.507Z,12.90
2022-11-05T13:49:57.862Z,12.80
2022-11-05T13:52:35.007Z,12.80
2022-11-05T13:55:11.322Z,12.70
2022-11-05T13:58:01.041Z,12.70
2022-11-05T14:00:32.988Z,12.70
2022-11-05T14:03:05.224Z,12.20
2022-11-05T14:05:38.713Z,12.70
2022-11-05T14:08:18.653Z,12.70
2022-11-05T14:10:59.180Z,13.80
2022-11-05T14:13:36.796Z,12.50
2022-11-05T14:16:08.012Z,12.60
2022-11-05T14:18:35.821Z,12.60
2022-11-05T14:21:05.414Z,12.50
2022-11-05T14:23:40.926Z,12.50
2022-11-05T14:26:23.619Z,12.40
2022-11-05T14:29:06.616Z,12.90
2022-11-05T14:32:08.314Z,12.30
2022-11-05T14:34:43.028Z,12.20
2022-11-05T14:37:13.298Z,13.30
2022-11-05T14:39:41.610Z,12.20
2022-11-05T14:42:11.910Z,13.40
2022-11-05T14:44:58.502Z,12.20
2022-11-05T14:47:29.831Z,13.40
2022-11-05T14:50:27.734Z,11.90
2022-11-05T14:52:57.858Z,12.10
2022-11-05T14:55:38.963Z,11.80
2022-11-05T14:58:31.200Z,12.10
2022-11-05T15:01:01.059Z,12.00
2022-11-05T15:03:33.513Z,12.00
2022-11-05T15:06:05.897Z,12.00
2022-11-05T15:08:48.609Z,12.00
2022-11-05T15:11:25.412Z,12.00
2022-11-05T15:13:55.771Z,12.00
2022-11-05T15:16:29.783Z,11.60
2022-11-05T15:18:58.130Z,12.00
2022-11-05T15:21:26.906Z,11.50
2022-11-05T15:23:56.809Z,12.00
2022-11-05T15:26:40.069Z,12.00
2022-11-05T15:29:19.725Z,11.90
2022-11-05T15:31:47.935Z,13.60
2022-11-05T15:34:23.117Z,13.70
2022-11-05T15:36:56.661Z,13.80
2022-11-05T15:39:30.959Z,12.70
2022-11-05T15:42:07.631Z,11.80
2022-11-05T15:44:43.914Z,12.30
2022-11-05T15:47:22.399Z,11.90
2022-11-05T15:50:09.980Z,11.70
2022-11-05T15:52:49.226Z,11.70
2022-11-05T15:55:24.405Z,12.50
2022-11-05T15:57:59.550Z,11.60
2022-11-05T16:00:29.875Z,12.10
2022-11-05T16:03:00.717Z,13.00
2022-11-05T16:05:31.132Z,13.30
2022-11-05T16:08:00.054Z,13.40
2022-11-05T16:10:30.944Z,11.50
2022-11-05T16:13:18.230Z,11.60
2022-11-05T16:15:58.355Z,13.70
2022-11-05T16:18:32.200Z,11.50
2022-11-05T16:21:08.387Z,12.80
2022-11-05T16:23:51.891Z,13.00
2022-11-05T16:29:29.342Z,11.50
2022-11-05T16:31:57.966Z,11.30
2022-11-05T16:34:40.403Z,11.50
2022-11-05T16:37:12.319Z,11.40
2022-11-05T16:39:39.775Z,11.30
2022-11-05T16:42:33.150Z,11.30
2022-11-05T16:45:03.352Z,11.40
2022-11-05T16:47:33.800Z,11.30
2022-11-05T16:50:01.249Z,11.30
2022-11-05T16:52:31.674Z,11.30
2022-11-05T16:54:59.023Z,12.00
2022-11-05T16:57:29.632Z,13.10
2022-11-05T16:59:59.932Z,11.20
2022-11-05T17:02:28.018Z,10.80
2022-11-05T17:04:55.480Z,12.10
2022-11-05T17:07:22.875Z,11.20
2022-11-05T17:09:50.252Z,12.30
2022-11-05T17:12:17.650Z,11.20
2022-11-05T17:14:45.023Z,12.30
2022-11-05T17:17:12.540Z,10.40
2022-11-05T17:19:42.449Z,11.40
2022-11-05T17:22:10.132Z,11.20
2022-11-05T17:24:38.876Z,11.30
2022-11-05T17:27:07.463Z,11.50
2022-11-05T17:29:34.970Z,13.00
2022-11-05T17:32:02.388Z,13.10
2022-11-05T17:34:29.778Z,10.80
2022-11-05T17:36:57.158Z,13.20
2022-11-05T17:39:30.279Z,12.90
2022-11-05T17:41:58.950Z,13.10
2022-11-05T17:44:26.426Z,11.10
2022-11-05T17:46:54.056Z,11.10
2022-11-05T17:49:21.418Z,11.20
2022-11-05T17:51:48.844Z,12.00
2022-11-05T17:54:16.649Z,11.20
2022-11-05T17:56:44.862Z,11.20
2022-11-05T17:59:12.373Z,13.00
2022-11-05T18:01:43.362Z,12.70
2022-11-05T18:04:11.046Z,11.00
2022-11-05T18:06:39.799Z,11.20
2022-11-05T18:09:08.702Z,12.10
2022-11-05T18:11:37.102Z,11.20
2022-11-05T18:14:05.018Z,12.20
2022-11-05T18:16:32.841Z,12.60
2022-11-05T18:19:00.430Z,11.40
2022-11-05T18:21:28.257Z,11.20
2022-11-05T18:23:55.592Z,11.20
2022-11-05T18:26:23.011Z,12.60
2022-11-05T18:28:50.349Z,11.50
2022-11-05T18:31:20.615Z,11.20
2022-11-05T18:33:49.879Z,12.40
2022-11-05T18:36:22.917Z,12.00
2022-11-05T18:38:51.280Z,11.10
2022-11-05T18:41:19.728Z,11.10
2022-11-05T18:43:47.745Z,11.00
2022-11-05T18:46:35.843Z,11.10
2022-11-05T18:49:02.596Z,12.20
2022-11-05T18:51:30.817Z,12.90
2022-11-05T18:53:58.307Z,10.70
2022-11-05T18:56:25.761Z,12.30
2022-11-05T18:59:14.619Z,12.60
2022-11-05T19:01:41.768Z,11.30
2022-11-05T19:04:09.592Z,11.00
2022-11-05T19:06:37.800Z,12.40
2022-11-05T19:09:07.298Z,13.10
2022-11-05T19:11:35.672Z,11.00
2022-11-05T19:14:03.236Z,11.80
2022-11-05T19:16:31.514Z,11.00
2022-11-05T19:19:00.716Z,10.90
2022-11-05T19:21:29.038Z,10.70
2022-11-05T19:24:00.211Z,10.90
2022-11-05T19:26:28.982Z,10.90
2022-11-05T19:29:01.754Z,10.90
2022-11-05T19:31:30.432Z,11.90
2022-11-05T19:33:57.948Z,10.80
2022-11-05T19:36:25.824Z,11.00
2022-11-05T19:38:58.898Z,12.30
2022-11-05T19:41:27.100Z,12.60
2022-11-05T19:43:55.160Z,12.30
2022-11-05T19:46:25.539Z,10.80
2022-11-05T19:48:53.391Z,11.80
2022-11-05T19:51:23.978Z,11.00
2022-11-05T19:53:52.971Z,11.00
2022-11-05T19:56:23.241Z,10.90
2022-11-05T19:58:53.088Z,10.50
2022-11-05T20:01:22.551Z,10.70
2022-11-05T20:03:50.563Z,12.30
2022-11-05T20:06:20.864Z,11.40
2022-11-05T20:09:15.347Z,11.20
2022-11-05T20:11:37.713Z,11.90
2022-11-05T20:14:06.163Z,10.80
2022-11-05T20:16:39.980Z,12.80
2022-11-05T20:19:11.526Z,10.80
2022-11-05T20:21:39.539Z,11.30
2022-11-05T20:24:07.559Z,10.90
2022-11-05T20:26:35.084Z,10.80
2022-11-05T20:29:03.054Z,11.20
2022-11-05T20:31:31.113Z,10.60
2022-11-05T20:33:58.601Z,10.80
2022-11-05T20:36:26.686Z,10.40
2022-11-05T20:38:58.153Z,12.70
2022-11-05T20:41:26.782Z,12.40
2022-11-05T20:43:54.667Z,10.80
2022-11-05T20:46:22.754Z,11.20
2022-11-05T20:48:50.763Z,10.70
2022-11-05T20:51:20.511Z,10.60
2022-11-05T20:53:48.878Z,10.20
2022-11-05T20:56:22.680Z,10.70
2022-11-05T20:58:50.805Z,12.60
2022-11-05T21:01:19.055Z,10.40
2022-11-05T21:03:47.873Z,11.10
2022-11-05T21:06:16.116Z,10.50
2022-11-05T21:08:43.983Z,12.80
2022-11-05T21:11:11.476Z,11.30
2022-11-05T21:13:39.064Z,10.30
2022-11-05T21:16:08.103Z,12.10
2022-11-05T21:18:37.889Z,11.10
2022-11-05T21:21:14.530Z,10.60
2022-11-05T21:23:42.232Z,10.70
2022-11-05T21:26:12.592Z,10.30
2022-11-05T21:28:41.212Z,11.20
2022-11-05T21:31:09.715Z,10.50
2022-11-05T21:33:37.664Z,10.70
2022-11-05T21:36:10.751Z,10.70
2022-11-05T21:38:38.838Z,10.70
2022-11-05T21:41:07.266Z,12.90
2022-11-05T21:43:34.877Z,10.80
2022-11-05T21:46:04.033Z,12.80
2022-11-05T21:48:32.224Z,10.60
2022-11-05T21:51:18.556Z,11.80
2022-11-05T21:54:04.741Z,10.70
2022-11-05T21:56:51.760Z,11.50
2022-11-05T21:59:40.794Z,10.60
2022-11-05T22:02:09.965Z,10.60
2022-11-05T22:04:42.654Z,11.40
2022-11-05T22:07:12.000Z,11.90
2022-11-05T22:09:39.568Z,11.90
2022-11-05T22:12:07.362Z,10.50
2022-11-05T22:14:35.253Z,10.50
2022-11-05T22:17:02.735Z,11.90
2022-11-05T22:19:30.860Z,10.70
2022-11-05T22:21:58.167Z,10.50
2022-11-05T22:24:27.982Z,10.60
2022-11-05T22:26:55.691Z,12.00
2022-11-05T22:29:23.065Z,12.20
2022-11-05T22:31:50.373Z,11.20
2022-11-05T22:34:18.011Z,10.60
2022-11-05T22:36:45.303Z,10.50
2022-11-05T22:39:12.985Z,10.20
2022-11-05T22:41:40.694Z,10.40
2022-11-05T22:44:10.231Z,11.70
2022-11-05T22:46:38.693Z,12.50
2022-11-05T22:49:07.379Z,11.70
2022-11-05T22:51:36.697Z,12.30
2022-11-05T22:54:04.662Z,10.60
2022-11-05T22:56:35.411Z,10.60
2022-11-05T22:59:04.080Z,11.00
2022-11-05T23:01:31.590Z,9.20
2022-11-05T23:03:59.597Z,10.60
2022-11-05T23:06:51.020Z,10.50
2022-11-05T23:09:38.596Z,12.00
2022-11-05T23:12:09.294Z,11.30
2022-11-05T23:14:37.037Z,10.60
2022-11-05T23:17:23.184Z,12.20
2022-11-05T23:20:09.280Z,10.20
2022-11-05T23:22:55.014Z,10.60
2022-11-05T23:25:24.777Z,12.30
2022-11-05T23:27:53.979Z,10.50
2022-11-05T23:30:24.881Z,10.60
2022-11-05T23:32:53.359Z,10.50
2022-11-05T23:35:39.080Z,11.00
2022-11-05T23:38:25.035Z,12.50
2022-11-05T23:41:30.494Z,12.00
2022-11-05T23:44:16.622Z,10.20
2022-11-05T23:47:02.559Z,11.50
2022-11-05T23:49:29.839Z,11.10
2022-11-05T23:51:57.189Z,10.20
2022-11-05T23:54:24.636Z,10.60
2022-11-05T23:56:51.931Z,11.10
2022-11-05T23:59:19.653Z,10.80
